Collier Row, United Kingdom
Current Conditions -  °F | °C
As of 12:20 PM on Tuesday 27 Jan 2015 (Local Time) from EGLC Reporting Station
Scattered Clouds Scattered Clouds  
Wind Chill: 44°   Ceiling: Unl
Heat Index: 48°   Visibility: 6mi
Dew Point: 37°   Wind: 10mph
Humidity: 66%   Direction: 280°W
Pressure: 30.33"   Gusts: NA
Location:  51.6°N, 0.17°E
Report Text: EGLC 271220Z 28009KT 9999 SCT024 09/03 Q1027
Loading
Personal Weather Stations






























Interactive Weather Map New forecast layout! Learn more

10-Day Weather Forecast

Advertisements
Track Severe Weather on mobile